Impacts TAF Board
For situational awareness. Not to be used for flight planning purposes.
IDs:

KTLH - Tallahassee Intl, FL, US

Issued at 2345 UTC 05 Dec 2020
Updated at 0222 UTC 06 Dec 2020
Potential Impact None Slight Moderate High
Time0153Z 06/03Z 06/04Z 06/05Z 06/06Z 06/07Z 06/08Z 06/09Z 06/10Z 06/11Z 06/12Z 06/13Z 06/14Z 06/15Z>>
Type OBS PRVL PRVL PRVL PRVL PRVL PRVL PRVL PRVL PRVL PRVL PRVL PRVL PRVL
VIS 10 >6 >6 >6 >6 >6 >6 >6 >6 >6 >6 >6 >6 >6
CIG -- 200 200 200 200 200 200 200 200 200 200 200 80 80
Cover FEW BKN BKN BKN BKN BKN BKN BKN BKN BKN BKN BKN OVC OVC
FltCat VFR VFR VFR VFR VFR VFR VFR VFR VFR VFR VFR VFR VFR VFR
WX -- -- -- -- -- -- -- -- -- -- -- -- -- --
WDir VRB 330 330 330 330 330 330 330 330 330 330 330 250 250
WSpd 0 3 3 3 3 3 3 3 3 3 3 3 5 5
WGst -- -- -- -- -- -- -- -- -- -- -- -- -- --
Raw TAF
KTLH 052345Z 0600/0624 33003KT P6SM BKN200
  FM061400 25005KT P6SM BKN080 OVC100


Raw METAR
KTLH 060153Z 00000KT 10SM FEW250 09/06 A3009 RMK AO2 SLP189 T00890061
KTLH 060053Z 34003KT 10SM FEW250 09/06 A3010 RMK AO2 SLP191 T00940061
KTLH 052353Z 00000KT 10SM FEW250 11/07 A3010 RMK AO2 SLP191 T01110067 10167 20111 53010

METAR Board
Radar Display
Forecast Discussion
For situational awareness. Not to be used for flight planning purposes.